KOSH

Wittman Regional Airport

Oshkosh, Wisconsin, USA
METAR KOSH 121753Z 11005KT 1 3/4SM BR BKN006 OVC011 01/00 A2965 RMK AO2 UPB31E45 CIG 005V009 SLP054 P0000 60003 T00110000 10017 20011 58012
Observed Flight Rules
Dec-12 @ 17:53 UTC (55 minutes ago) Instrument Flight Rules
Wind Visibility Clouds Conditions
110° at 5 knots 1 3/4 miles
  • Broken at 600' AGL
  • Overcast at 1,100' AGL
  • Mist
Temperatures Readings Precipitation
Current 1°C / 34°F
Dewpoint 0°C / 32°F
Humidity 93%
Altimeter 29.65" Hg
Pressure 1005.4 hPa
Elevation 248
Current Rain 0.005
METAR KOSH 121753Z 11005KT 1 3/4SM BR BKN006 OVC011 01/00 A2965 RMK AO2 UPB31E45 CIG 005V009 SLP054 P0000 60003 T00110000 10017 20011 58012
Observed Flight Rules
Dec-12 @ 17:53 UTC
(55 minutes ago)
IFR
Wind Visibility
110° at 5 knots 1 3/4 miles
Clouds
  • Broken at 600' AGL
  • Overcast at 1,100' AGL
Conditions
  • Mist
Temperature Dewpoint
1°C / 34°F 0°C / 32°F
Humidity Altimeter Pressure
93% 29.65" Hg 1005.4 hPa
Current Rain
0.005